CPX792 Details

Departure: Auckland International Airport (NZAA)
Arrival: Kingsford Smith International Airport (YSSY)
Route: MADEP N774 MARLN


Current Weather Information
NZAA 252330Z AUTO 02012KT 350V050 9999 SCT037/// 24/15 Q1025 NOSIG
YSSY 252330Z 25013KT CAVOK 21/07 Q1015 FM2330 MOD TURB BLW 5000FT